Del Norte — WDC2280 — position and weather

sailwx.info

Track history (hours):
 
Tides and Currents Weather Stations Pressure Air Temp Water Temp Dewpoint Dewpoint Depression Visibility Wind Speed Wind Dir Waves Ship Positions

Del Norte

Owner: Golden Gate Bridge,Hwy & Transportation District, Larkspur, CA. More information available from US FCC via Universal Licensing System and Coast Guard Vessel Documentation Center.

Last reported at 2014-Oct-23 01:04 UTC. Time now 2014-Oct-23 02:22 UTC.
Position N 37°57' W 122°30'.

Length 48 m.

Type: High speed craft. MMSI: 366990520.

Date/timePositionNaut miles runAvg speedWind from/ knotsBaromVisibWave heightAir tempDewpointWater temp
2014-Oct-23 01:04N 37°57' W 122°30'1020.3
2014-Oct-23 00:33N 37°48' W 122°24'1010.5
2014-Oct-22 23:34N 37°57' W 122°30'3 3.2
2014-Oct-22 22:34N 37°55' W 122°27'3 3.3
2014-Oct-22 21:33N 37°57' W 122°31'0 0.0
2014-Oct-22 20:33N 37°57' W 122°31'0 0.0
2014-Oct-22 19:33N 37°57' W 122°31'0 0.0
2014-Oct-22 18:33N 37°57' W 122°31'0 0.0
2014-Oct-22 17:33N 37°57' W 122°31'0 0.0
2014-Oct-22 16:33N 37°57' W 122°31'4 3.7
2014-Oct-22 15:34N 37°55' W 122°27'3 3.5
2014-Oct-22 14:33N 37°57' W 122°30'10 0.7
2014-Oct-22 00:34N 37°49' W 122°23'10 9.7
2014-Oct-21 23:34N 37°57' W 122°30'7 7.5
2014-Oct-21 22:34N 37°51' W 122°24'8 7.5
2014-Oct-21 21:33N 37°57' W 122°31'0 0.0
2014-Oct-21 20:33N 37°57' W 122°31'0 0.0
2014-Oct-21 19:34N 37°57' W 122°31'0 0.0
2014-Oct-21 18:33N 37°57' W 122°31'0 0.0
2014-Oct-21 17:34N 37°57' W 122°31'0 0.0
2014-Oct-21 16:34N 37°57' W 122°31'0 0.4
2014-Oct-21 15:34N 37°56' W 122°30'0 0.0
2014-Oct-21 14:34N 37°56' W 122°30'0 0.4
2014-Oct-21 13:34N 37°57' W 122°31'  
2014-Oct-16 22:33N 37°56' W 122°28'1413.9
2014-Oct-16 21:33N 38°07' W 122°17'  
Track history (hours):
 
Tides and Currents Weather Stations Pressure Air Temp Water Temp Dewpoint Dewpoint Depression Visibility Wind Speed Wind Dir Waves Ship Positions

Del Norte

Owner: Golden Gate Bridge,Hwy & Transportation District, Larkspur, CA. More information available from US FCC via Universal Licensing System and Coast Guard Vessel Documentation Center.

Last reported at 2014-Oct-23 01:04 UTC. Time now 2014-Oct-23 02:22 UTC.
Position N 37°57' W 122°30'.

Length 48 m.

Type: High speed craft. MMSI: 366990520.

Date/timePositionNaut miles runAvg speedWind from/ knotsBaromVisibWave heightAir tempDewpointWater temp
2014-Oct-23 01:04N 37°57' W 122°30'1020.3
2014-Oct-23 00:33N 37°48' W 122°24'1010.5
2014-Oct-22 23:34N 37°57' W 122°30'3 3.2
2014-Oct-22 22:34N 37°55' W 122°27'3 3.3
2014-Oct-22 21:33N 37°57' W 122°31'0 0.0
2014-Oct-22 20:33N 37°57' W 122°31'0 0.0
2014-Oct-22 19:33N 37°57' W 122°31'0 0.0
2014-Oct-22 18:33N 37°57' W 122°31'0 0.0
2014-Oct-22 17:33N 37°57' W 122°31'0 0.0
2014-Oct-22 16:33N 37°57' W 122°31'4 3.7
2014-Oct-22 15:34N 37°55' W 122°27'3 3.5
2014-Oct-22 14:33N 37°57' W 122°30'10 0.7
2014-Oct-22 00:34N 37°49' W 122°23'10 9.7
2014-Oct-21 23:34N 37°57' W 122°30'7 7.5
2014-Oct-21 22:34N 37°51' W 122°24'8 7.5
2014-Oct-21 21:33N 37°57' W 122°31'0 0.0
2014-Oct-21 20:33N 37°57' W 122°31'0 0.0
2014-Oct-21 19:34N 37°57' W 122°31'0 0.0
2014-Oct-21 18:33N 37°57' W 122°31'0 0.0
2014-Oct-21 17:34N 37°57' W 122°31'0 0.0
2014-Oct-21 16:34N 37°57' W 122°31'0 0.4
2014-Oct-21 15:34N 37°56' W 122°30'0 0.0
2014-Oct-21 14:34N 37°56' W 122°30'0 0.4
2014-Oct-21 13:34N 37°57' W 122°31'  
2014-Oct-16 22:33N 37°56' W 122°28'1413.9
2014-Oct-16 21:33N 38°07' W 122°17'  

Dump ship's entire track history